createdAt,value
2023-01-17T00:00:09.322Z,95560.13
2023-01-17T00:02:36.096Z,95557.09
2023-01-17T00:05:21.440Z,95556.50
2023-01-17T00:08:06.989Z,95559.88
2023-01-17T00:10:34.186Z,95560.69
2023-01-17T00:13:03.638Z,95567.41
2023-01-17T00:15:31.609Z,95567.88
2023-01-17T00:17:58.978Z,95572.81
2023-01-17T00:20:47.406Z,95576.25
2023-01-17T00:23:36.154Z,95581.97
2023-01-17T00:26:03.791Z,95587.47
2023-01-17T00:28:39.192Z,95593.09
2023-01-17T00:31:08.041Z,95591.16
2023-01-17T00:33:35.419Z,95588.63
2023-01-17T00:36:03.671Z,95594.69
2023-01-17T00:38:32.464Z,95607.66
2023-01-17T00:41:11.309Z,95608.78
2023-01-17T00:43:56.712Z,95615.53
2023-01-17T00:46:42.207Z,95619.28
2023-01-17T00:49:27.651Z,95621.06
2023-01-17T00:52:13.736Z,95631.72
2023-01-17T00:54:59.744Z,95635.97
2023-01-17T00:57:45.751Z,95641.78
2023-01-17T01:00:31.517Z,95649.81
2023-01-17T01:03:17.248Z,95658.78
2023-01-17T01:06:02.330Z,95657.91
2023-01-17T01:08:48.661Z,95664.78
2023-01-17T01:11:36.707Z,95653.56
2023-01-17T01:14:23.026Z,95662.44
2023-01-17T01:17:08.799Z,95666.88
2023-01-17T01:19:54.090Z,95670.47
2023-01-17T01:22:39.677Z,95660.09
2023-01-17T01:25:25.718Z,95674.84
2023-01-17T01:28:11.496Z,95681.13
2023-01-17T01:30:56.475Z,95674.16
2023-01-17T01:33:23.422Z,95690.63
2023-01-17T01:35:54.194Z,95694.47
2023-01-17T01:38:25.366Z,95693.72
2023-01-17T01:40:54.315Z,95697.94
2023-01-17T01:43:40.977Z,95700.47
2023-01-17T01:46:08.324Z,95694.47
2023-01-17T01:48:40.078Z,95709.94
2023-01-17T01:51:10.809Z,95713.53
2023-01-17T01:53:40.500Z,95711.63
2023-01-17T01:56:12.007Z,95718.47
2023-01-17T01:58:39.799Z,95723.66
2023-01-17T02:01:08.509Z,95731.63
2023-01-17T02:03:36.653Z,95739.91
2023-01-17T02:06:34.792Z,95743.09
2023-01-17T02:09:07.890Z,95740.41
2023-01-17T02:11:37.034Z,95751.06
2023-01-17T02:14:04.083Z,95734.97
2023-01-17T02:17:08.235Z,95743.63
2023-01-17T02:20:25.925Z,95752.31
2023-01-17T02:23:14.590Z,95746.59
2023-01-17T02:26:19.166Z,95756.25
2023-01-17T02:29:23.457Z,95750.63
2023-01-17T02:31:57.463Z,95758.50
2023-01-17T02:34:54.669Z,95758.38
2023-01-17T02:37:35.027Z,95735.13
2023-01-17T02:40:14.904Z,95749.56
2023-01-17T02:42:46.285Z,95755.03
2023-01-17T02:45:17.607Z,95752.97
2023-01-17T02:47:44.389Z,95758.59
2023-01-17T02:50:17.833Z,95766.22
2023-01-17T02:53:08.485Z,95766.84
2023-01-17T02:56:00.047Z,95768.91
2023-01-17T02:59:01.273Z,95776.16
2023-01-17T03:01:48.463Z,95769.28
2023-01-17T03:04:29.536Z,95785.72
2023-01-17T03:06:57.664Z,95778.16
2023-01-17T03:09:25.659Z,95783.69
2023-01-17T03:11:52.738Z,95783.97
2023-01-17T03:14:19.407Z,95791.84
2023-01-17T03:16:46.437Z,95794.78
2023-01-17T03:19:15.195Z,95792.19
2023-01-17T03:21:42.302Z,95796.69
2023-01-17T03:24:09.087Z,95792.63
2023-01-17T03:26:36.048Z,95804.44
2023-01-17T03:29:03.207Z,95798.00
2023-01-17T03:31:29.952Z,95806.69
2023-01-17T03:33:57.218Z,95817.16
2023-01-17T03:36:23.943Z,95810.09
2023-01-17T03:38:51.067Z,95823.50
2023-01-17T03:41:18.101Z,95828.59
2023-01-17T03:43:44.952Z,95836.41
2023-01-17T03:46:28.849Z,95845.16
2023-01-17T03:48:55.897Z,95839.00
2023-01-17T03:51:22.816Z,95848.47
2023-01-17T03:53:50.613Z,95841.69
2023-01-17T03:56:17.382Z,95849.81
2023-01-17T03:58:44.090Z,95847.22
2023-01-17T04:01:11.377Z,95843.66
2023-01-17T04:03:39.186Z,95843.56
2023-01-17T04:06:06.412Z,95841.69
2023-01-17T04:08:33.042Z,95859.41
2023-01-17T04:10:59.836Z,95862.34
2023-01-17T04:13:26.602Z,95862.34
2023-01-17T04:15:54.200Z,95865.47
2023-01-17T04:18:23.530Z,95875.13
2023-01-17T04:20:50.998Z,95862.16
2023-01-17T04:23:18.059Z,95874.53
2023-01-17T04:25:44.955Z,95856.53
2023-01-17T04:28:11.631Z,95885.41
2023-01-17T04:30:38.314Z,95882.31
2023-01-17T04:33:05.490Z,95884.63
2023-01-17T04:35:33.679Z,95887.22
2023-01-17T04:38:00.497Z,95896.94
2023-01-17T04:40:27.979Z,95900.41
2023-01-17T04:42:54.678Z,95908.84
2023-01-17T04:45:22.037Z,95916.38
2023-01-17T04:47:48.744Z,95921.69
2023-01-17T04:50:15.634Z,95921.63
2023-01-17T04:52:43.158Z,95931.22
2023-01-17T04:55:11.120Z,95931.38
2023-01-17T04:57:37.919Z,95936.56
2023-01-17T05:00:05.469Z,95932.94
2023-01-17T05:02:32.520Z,95942.44
2023-01-17T05:04:59.377Z,95945.66
2023-01-17T05:07:26.436Z,95951.16
2023-01-17T05:09:53.592Z,95963.50
2023-01-17T05:12:20.289Z,95960.50
2023-01-17T05:14:47.606Z,95960.91
2023-01-17T05:17:14.501Z,95963.72
2023-01-17T05:19:41.276Z,95962.16
2023-01-17T05:22:15.454Z,95970.84
2023-01-17T05:24:45.868Z,95968.91
2023-01-17T05:27:13.312Z,95980.66
2023-01-17T05:29:40.433Z,95980.16
2023-01-17T05:32:07.121Z,95986.50
2023-01-17T05:34:33.976Z,95983.81
2023-01-17T05:37:00.917Z,95989.44
2023-01-17T05:39:27.725Z,95982.13
2023-01-17T05:41:54.585Z,95991.81
2023-01-17T05:44:21.701Z,95995.31
2023-01-17T05:46:48.536Z,95987.38
2023-01-17T05:49:15.134Z,95995.16
2023-01-17T05:51:41.965Z,96006.66
2023-01-17T05:54:08.815Z,96006.75
2023-01-17T05:56:35.475Z,96015.44
2023-01-17T05:59:02.407Z,96021.91
2023-01-17T06:01:29.124Z,96028.75
2023-01-17T06:03:55.833Z,96032.50
2023-01-17T06:06:23.124Z,96041.72
2023-01-17T06:08:50.303Z,96043.53
2023-01-17T06:11:18.805Z,96045.28
2023-01-17T06:13:45.934Z,96039.16
2023-01-17T06:16:12.743Z,96037.88
2023-01-17T06:18:39.861Z,96035.59
2023-01-17T06:21:07.078Z,96031.09
2023-01-17T06:23:33.715Z,96038.88
2023-01-17T06:26:04.025Z,96041.59
2023-01-17T06:28:34.847Z,96039.00
2023-01-17T06:31:06.946Z,96037.56
2023-01-17T06:33:34.122Z,96037.88
2023-01-17T06:36:01.533Z,96031.56
2023-01-17T06:38:30.354Z,96034.34
2023-01-17T06:41:00.869Z,96045.66
2023-01-17T06:43:33.043Z,96051.50
2023-01-17T06:46:01.537Z,96054.72
2023-01-17T06:48:28.302Z,96065.06
2023-01-17T06:50:55.203Z,96061.84
2023-01-17T06:53:21.878Z,96066.38
2023-01-17T06:55:48.775Z,96070.56
2023-01-17T06:58:15.459Z,96062.81
2023-01-17T07:00:42.371Z,96072.19
2023-01-17T07:03:18.514Z,96072.50
2023-01-17T07:05:45.346Z,96070.25
2023-01-17T07:08:12.169Z,96073.31
2023-01-17T07:10:38.832Z,96064.75
2023-01-17T07:13:05.560Z,96066.38
2023-01-17T07:15:32.307Z,96080.28
2023-01-17T07:18:01.586Z,96074.28
2023-01-17T07:20:28.393Z,96075.44
2023-01-17T07:22:55.269Z,96071.22
2023-01-17T07:25:22.513Z,96089.00
2023-01-17T07:27:49.243Z,96084.00
2023-01-17T07:30:16.445Z,96085.13
2023-01-17T07:32:43.144Z,96095.00
2023-01-17T07:35:10.287Z,96099.41
2023-01-17T07:37:36.937Z,96097.13
2023-01-17T07:40:04.612Z,96105.22
2023-01-17T07:42:31.481Z,96118.00
2023-01-17T07:44:58.271Z,96116.22
2023-01-17T07:47:25.803Z,96123.81
2023-01-17T07:49:52.640Z,96119.13
2023-01-17T07:52:19.440Z,96124.97
2023-01-17T07:54:46.059Z,96123.97
2023-01-17T07:57:13.607Z,96126.88
2023-01-17T07:59:40.313Z,96131.09
2023-01-17T08:02:10.459Z,96129.47
2023-01-17T08:04:37.284Z,96129.81
2023-01-17T08:07:03.995Z,96121.38
2023-01-17T08:09:31.103Z,96133.22
2023-01-17T08:11:57.968Z,96138.56
2023-01-17T08:14:25.268Z,96135.28
2023-01-17T08:16:52.064Z,96136.75
2023-01-17T08:19:19.206Z,96133.19
2023-01-17T08:21:46.937Z,96135.75
2023-01-17T08:24:15.013Z,96138.16
2023-01-17T08:26:42.334Z,96149.69
2023-01-17T08:29:09.341Z,96150.66
2023-01-17T08:31:36.387Z,96158.22
2023-01-17T08:34:03.608Z,96154.97
2023-01-17T08:36:31.507Z,96155.59
2023-01-17T08:38:58.778Z,96155.25
2023-01-17T08:41:27.634Z,96159.47
2023-01-17T08:43:54.345Z,96161.13
2023-01-17T08:46:21.133Z,96164.34
2023-01-17T08:48:47.785Z,96155.44
2023-01-17T08:51:14.554Z,96161.75
2023-01-17T08:53:42.113Z,96156.22
2023-01-17T08:56:09.678Z,96163.69
2023-01-17T08:58:36.581Z,96161.88
2023-01-17T09:01:05.343Z,96174.66
2023-01-17T09:03:33.464Z,96174.00
2023-01-17T09:06:11.368Z,96184.00
2023-01-17T09:08:38.423Z,96181.94
2023-01-17T09:11:10.770Z,96191.16
2023-01-17T09:13:37.975Z,96187.31
2023-01-17T09:16:05.866Z,96181.13
2023-01-17T09:18:34.072Z,96192.47
2023-01-17T09:21:15.867Z,96201.53
2023-01-17T09:23:42.957Z,96189.72
2023-01-17T09:26:19.551Z,96193.41
2023-01-17T09:28:46.385Z,96188.56
2023-01-17T09:31:15.366Z,96191.78
2023-01-17T09:33:43.523Z,96182.88
2023-01-17T09:36:10.962Z,96191.25
2023-01-17T09:38:38.587Z,96180.78
2023-01-17T09:41:20.419Z,96189.22
2023-01-17T09:44:33.515Z,96195.88
2023-01-17T09:47:07.438Z,96193.59
2023-01-17T09:49:42.788Z,96194.00
2023-01-17T09:52:12.464Z,96190.78
2023-01-17T09:54:41.675Z,96186.75
2023-01-17T09:57:27.110Z,96197.59
2023-01-17T10:00:22.932Z,96200.50
2023-01-17T10:03:27.041Z,96202.31
2023-01-17T10:06:17.695Z,96206.97
2023-01-17T10:09:26.004Z,96211.13
2023-01-17T10:12:40.408Z,96203.91
2023-01-17T10:15:48.782Z,96193.28
2023-01-17T10:19:08.503Z,96204.03
2023-01-17T10:22:13.159Z,96199.44
2023-01-17T10:25:18.939Z,96193.38
2023-01-17T10:27:55.382Z,96191.59
2023-01-17T10:30:31.607Z,96192.53
2023-01-17T10:33:00.437Z,96192.75
2023-01-17T10:35:30.897Z,96184.63
2023-01-17T10:37:59.524Z,96186.81
2023-01-17T10:40:41.488Z,96176.53
2023-01-17T10:43:39.570Z,96182.91
2023-01-17T10:46:07.911Z,96194.25
2023-01-17T10:48:46.711Z,96184.22
2023-01-17T10:51:28.355Z,96176.22
2023-01-17T10:54:23.196Z,96176.03
2023-01-17T10:56:49.838Z,96185.97
2023-01-17T10:59:34.545Z,96167.09
2023-01-17T11:02:07.799Z,96182.63
2023-01-17T11:04:39.433Z,96181.00
2023-01-17T11:07:15.096Z,96173.56
2023-01-17T11:09:49.774Z,96168.81
2023-01-17T11:12:42.221Z,96176.78
2023-01-17T11:15:29.328Z,96176.84
2023-01-17T11:18:05.209Z,96169.75
2023-01-17T11:20:43.210Z,96172.94
2023-01-17T11:23:19.095Z,96178.31
2023-01-17T11:25:55.316Z,96173.56
2023-01-17T11:28:36.869Z,96167.50
2023-01-17T11:31:23.766Z,96168.81
2023-01-17T11:34:18.185Z,96169.84
2023-01-17T11:36:45.264Z,96173.34
2023-01-17T11:39:38.268Z,96180.16
2023-01-17T11:42:06.828Z,96187.56
2023-01-17T11:44:35.470Z,96188.56
2023-01-17T11:47:19.249Z,96182.56
2023-01-17T11:49:48.038Z,96190.63
2023-01-17T11:52:26.425Z,96185.66
2023-01-17T11:54:54.981Z,96188.66
2023-01-17T11:57:31.050Z,96187.84
2023-01-17T12:00:20.124Z,96190.25
2023-01-17T12:03:11.314Z,96191.53
2023-01-17T12:05:51.622Z,96198.22
2023-01-17T12:08:51.842Z,96194.47
2023-01-17T12:11:37.619Z,96202.56
2023-01-17T12:14:18.875Z,96190.94
2023-01-17T12:17:00.754Z,96200.19
2023-01-17T12:19:43.807Z,96195.44
2023-01-17T12:23:06.496Z,96198.47
2023-01-17T12:26:05.093Z,96190.53
2023-01-17T12:28:52.972Z,96201.03
2023-01-17T12:31:53.303Z,96197.63
2023-01-17T12:34:26.230Z,96203.91
2023-01-17T12:37:03.827Z,96204.84
2023-01-17T12:39:39.777Z,96198.50
2023-01-17T12:42:14.160Z,96199.22
2023-01-17T12:44:56.228Z,96201.81
2023-01-17T12:47:23.019Z,96201.91
2023-01-17T12:50:04.165Z,96201.16
2023-01-17T12:52:49.015Z,96200.75
2023-01-17T12:55:32.702Z,96195.69
2023-01-17T12:58:01.236Z,96194.75
2023-01-17T13:00:29.939Z,96198.50
2023-01-17T13:03:24.844Z,96190.44
2023-01-17T13:05:51.831Z,96195.31
2023-01-17T13:08:24.093Z,96191.56
2023-01-17T13:10:57.759Z,96192.66
2023-01-17T13:13:26.974Z,96184.53
2023-01-17T13:15:56.504Z,96183.91
2023-01-17T13:18:26.673Z,96179.38
2023-01-17T13:21:22.977Z,96183.53
2023-01-17T13:24:21.961Z,96189.03
2023-01-17T13:27:00.999Z,96185.69
2023-01-17T13:29:40.108Z,96191.31
2023-01-17T13:32:38.211Z,96188.63
2023-01-17T13:35:13.944Z,96182.56
2023-01-17T13:37:52.931Z,96179.84
2023-01-17T13:40:32.173Z,96170.38
2023-01-17T13:43:03.859Z,96175.06
2023-01-17T13:45:35.876Z,96169.72
2023-01-17T13:48:30.306Z,96169.56
2023-01-17T13:50:58.909Z,96175.34
2023-01-17T13:53:34.487Z,96170.44
2023-01-17T13:56:14.880Z,96176.78
2023-01-17T13:58:49.014Z,96174.47
2023-01-17T14:01:38.801Z,96177.50
2023-01-17T14:04:09.164Z,96172.44
2023-01-17T14:06:49.064Z,96184.41
2023-01-17T14:09:21.212Z,96182.88
2023-01-17T14:17:25.805Z,96176.53
2023-01-17T14:19:55.149Z,96180.38
2023-01-17T14:22:26.396Z,96180.44
2023-01-17T14:25:10.143Z,96176.31
2023-01-17T14:28:03.905Z,96189.81
2023-01-17T14:30:37.231Z,96188.78
2023-01-17T14:33:17.347Z,96188.69
2023-01-17T14:35:57.092Z,96188.78
2023-01-17T14:38:29.267Z,96190.59
2023-01-17T14:41:08.028Z,96199.31
2023-01-17T14:43:38.054Z,96197.34
2023-01-17T14:46:25.177Z,96204.50
2023-01-17T14:49:00.082Z,96205.31
2023-01-17T14:51:26.874Z,96214.69
2023-01-17T14:54:05.731Z,96201.84
2023-01-17T14:56:32.712Z,96200.41
2023-01-17T14:59:17.516Z,96197.44
2023-01-17T15:01:55.214Z,96197.56
2023-01-17T15:04:30.930Z,96193.41
2023-01-17T15:06:59.024Z,96198.94
2023-01-17T15:09:30.380Z,96197.69
2023-01-17T15:11:58.239Z,96200.72
2023-01-17T15:14:30.472Z,96194.56
2023-01-17T15:16:57.511Z,96192.38
2023-01-17T15:19:27.886Z,96197.09
2023-01-17T15:21:55.800Z,96189.38
2023-01-17T15:24:26.883Z,96191.22
2023-01-17T15:26:53.771Z,96190.72
2023-01-17T15:29:34.266Z,96193.84
2023-01-17T15:32:05.984Z,96194.94
2023-01-17T15:34:43.776Z,96207.53
2023-01-17T15:37:31.139Z,96201.41
2023-01-17T15:40:19.347Z,96201.78
2023-01-17T15:42:52.326Z,96196.09
2023-01-17T15:45:22.170Z,96188.66
2023-01-17T15:47:49.422Z,96184.84
2023-01-17T15:50:42.508Z,96184.78
2023-01-17T15:53:31.923Z,96186.03
2023-01-17T15:55:59.395Z,96182.25
2023-01-17T15:58:28.707Z,96183.72
2023-01-17T16:00:55.737Z,96188.94
2023-01-17T16:03:29.491Z,96177.66
2023-01-17T16:05:58.984Z,96179.28
2023-01-17T16:08:51.940Z,96176.41
2023-01-17T16:11:19.287Z,96182.09
2023-01-17T16:13:47.535Z,96191.34
2023-01-17T16:16:20.216Z,96193.44
2023-01-17T16:18:47.981Z,96198.13
2023-01-17T16:21:26.684Z,96192.47
2023-01-17T16:23:54.004Z,96185.81
2023-01-17T16:26:20.892Z,96191.00
2023-01-17T16:28:48.247Z,96186.94
2023-01-17T16:31:16.013Z,96190.44
2023-01-17T16:33:42.769Z,96197.72
2023-01-17T16:36:15.081Z,96186.91
2023-01-17T16:38:43.193Z,96179.31
2023-01-17T16:41:10.049Z,96174.19
2023-01-17T16:43:36.763Z,96176.41
2023-01-17T16:46:03.562Z,96167.03
2023-01-17T16:48:30.322Z,96176.03
2023-01-17T16:50:57.313Z,96179.28
2023-01-17T16:53:27.065Z,96177.44
2023-01-17T16:55:57.807Z,96179.22
2023-01-17T16:58:24.730Z,96178.84
2023-01-17T17:00:51.941Z,96176.94
2023-01-17T17:03:20.805Z,96187.50
2023-01-17T17:05:55.936Z,96178.91
2023-01-17T17:08:29.973Z,96185.97
2023-01-17T17:11:06.975Z,96189.06
2023-01-17T17:13:36.520Z,96184.88
2023-01-17T17:16:09.877Z,96184.31
2023-01-17T17:18:37.417Z,96198.56
2023-01-17T17:21:04.387Z,96189.22
2023-01-17T17:23:33.451Z,96193.47
2023-01-17T17:26:03.826Z,96194.88
2023-01-17T17:28:31.088Z,96201.88
2023-01-17T17:31:05.891Z,96196.06
2023-01-17T17:33:32.978Z,96205.56
2023-01-17T17:36:07.883Z,96207.03
2023-01-17T17:38:35.643Z,96213.94
2023-01-17T17:41:10.570Z,96221.06
2023-01-17T17:43:39.051Z,96225.59
2023-01-17T17:46:07.913Z,96224.44
2023-01-17T17:48:35.087Z,96228.50
2023-01-17T17:51:02.102Z,96232.00
2023-01-17T17:53:29.016Z,96240.41
2023-01-17T17:55:56.755Z,96240.13
2023-01-17T17:58:24.148Z,96242.75
2023-01-17T18:00:51.915Z,96256.94
2023-01-17T18:03:20.447Z,96252.59
2023-01-17T18:05:48.740Z,96267.00
2023-01-17T18:08:15.934Z,96268.13
2023-01-17T18:10:43.081Z,96278.34
2023-01-17T18:13:10.088Z,96277.50
2023-01-17T18:15:36.816Z,96274.72
2023-01-17T18:18:03.703Z,96282.84
2023-01-17T18:20:30.734Z,96282.28
2023-01-17T18:22:57.868Z,96280.69
2023-01-17T18:25:25.570Z,96286.88
2023-01-17T18:27:52.650Z,96287.41
2023-01-17T18:30:19.585Z,96288.69
2023-01-17T18:32:50.192Z,96291.41
2023-01-17T18:35:17.242Z,96287.44
2023-01-17T18:37:43.976Z,96287.81
2023-01-17T18:40:11.562Z,96285.75
2023-01-17T18:42:39.304Z,96284.22
2023-01-17T18:45:06.937Z,96278.22
2023-01-17T18:47:34.034Z,96282.97
2023-01-17T18:50:02.197Z,96285.53
2023-01-17T18:52:29.340Z,96285.41
2023-01-17T18:54:56.612Z,96279.72
2023-01-17T18:57:26.569Z,96275.34
2023-01-17T18:59:53.852Z,96281.31
2023-01-17T19:02:21.715Z,96290.09
2023-01-17T19:04:48.808Z,96289.78
2023-01-17T19:07:15.844Z,96292.31
2023-01-17T19:09:44.438Z,96285.06
2023-01-17T19:12:11.310Z,96294.22
2023-01-17T19:14:38.973Z,96294.44
2023-01-17T19:17:05.743Z,96286.72
2023-01-17T19:19:32.439Z,96281.25
2023-01-17T19:21:59.231Z,96286.66
2023-01-17T19:24:26.680Z,96289.88
2023-01-17T19:26:54.662Z,96282.69
2023-01-17T19:29:23.088Z,96290.53
2023-01-17T19:31:49.918Z,96298.25
2023-01-17T19:34:19.947Z,96291.47
2023-01-17T19:36:47.491Z,96299.88
2023-01-17T19:39:14.470Z,96297.59
2023-01-17T19:41:43.870Z,96299.97
2023-01-17T19:44:14.071Z,96286.66
2023-01-17T19:46:41.762Z,96284.88
2023-01-17T19:49:09.192Z,96282.09
2023-01-17T19:51:36.241Z,96283.56
2023-01-17T19:54:04.407Z,96282.25
2023-01-17T19:56:31.491Z,96285.56
2023-01-17T19:59:02.092Z,96301.25
2023-01-17T20:01:31.538Z,96296.34
2023-01-17T20:03:59.179Z,96303.19
2023-01-17T20:06:32.483Z,96304.66
2023-01-17T20:09:04.019Z,96310.06
2023-01-17T20:11:31.097Z,96311.94
2023-01-17T20:13:59.769Z,96315.47
2023-01-17T20:16:29.414Z,96313.44
2023-01-17T20:18:58.705Z,96304.41
2023-01-17T20:21:27.712Z,96320.78
2023-01-17T20:23:55.487Z,96329.41
2023-01-17T20:26:26.254Z,96326.97
2023-01-17T20:29:19.418Z,96333.16
2023-01-17T20:31:52.646Z,96338.56
2023-01-17T20:34:19.878Z,96339.22
2023-01-17T20:36:47.575Z,96342.56
2023-01-17T20:39:15.146Z,96351.88
2023-01-17T20:41:44.111Z,96351.63
2023-01-17T20:44:16.117Z,96356.19
2023-01-17T20:46:43.591Z,96358.78
2023-01-17T20:49:15.479Z,96364.59
2023-01-17T20:51:44.827Z,96367.94
2023-01-17T20:54:16.800Z,96365.84
2023-01-17T20:56:44.894Z,96369.09
2023-01-17T20:59:15.169Z,96366.38
2023-01-17T21:01:44.530Z,96375.06
2023-01-17T21:04:13.134Z,96370.00
2023-01-17T21:06:41.001Z,96377.88
2023-01-17T21:09:10.613Z,96379.50
2023-01-17T21:11:37.988Z,96384.56
2023-01-17T21:14:09.071Z,96391.63
2023-01-17T21:16:36.357Z,96389.97
2023-01-17T21:19:03.169Z,96383.72
2023-01-17T21:21:30.396Z,96392.78
2023-01-17T21:23:59.114Z,96395.00
2023-01-17T21:26:27.364Z,96397.31
2023-01-17T21:28:55.336Z,96391.59
2023-01-17T21:31:28.295Z,96395.69
2023-01-17T21:34:03.398Z,96396.78
2023-01-17T21:36:33.437Z,96390.78
2023-01-17T21:39:05.292Z,96387.38
2023-01-17T21:41:34.962Z,96403.50
2023-01-17T21:44:04.119Z,96389.16
2023-01-17T21:46:30.880Z,96393.09
2023-01-17T21:48:57.916Z,96396.38
2023-01-17T21:51:45.424Z,96392.69
2023-01-17T21:54:12.387Z,96396.38
2023-01-17T21:56:58.164Z,96398.16
2023-01-17T21:59:25.056Z,96395.84
2023-01-17T22:01:51.721Z,96391.09
2023-01-17T22:04:18.440Z,96392.22
2023-01-17T22:06:45.143Z,96396.25
2023-01-17T22:09:12.092Z,96396.38
2023-01-17T22:11:38.924Z,96397.63
2023-01-17T22:14:06.754Z,96397.88
2023-01-17T22:16:34.745Z,96389.31
2023-01-17T22:19:01.420Z,96406.81
2023-01-17T22:21:29.165Z,96404.81
2023-01-17T22:23:58.554Z,96403.16
2023-01-17T22:26:28.141Z,96399.78
2023-01-17T22:28:55.117Z,96403.59
2023-01-17T22:31:24.750Z,96398.13
2023-01-17T22:34:00.135Z,96401.97
2023-01-17T22:36:27.992Z,96402.09
2023-01-17T22:38:55.132Z,96394.63
2023-01-17T22:41:24.605Z,96392.31
2023-01-17T22:43:53.660Z,96379.41
2023-01-17T22:46:23.571Z,96378.03
2023-01-17T22:48:50.644Z,96375.09
2023-01-17T22:51:19.021Z,96373.19
2023-01-17T22:53:48.218Z,96378.63
2023-01-17T22:56:17.654Z,96371.59
2023-01-17T22:58:45.148Z,96376.06
2023-01-17T23:01:18.427Z,96369.81
2023-01-17T23:03:46.609Z,96370.78
2023-01-17T23:06:21.940Z,96371.59
2023-01-17T23:08:51.078Z,96369.97
2023-01-17T23:11:46.259Z,96359.94
2023-01-17T23:14:30.773Z,96365.38
2023-01-17T23:17:18.193Z,96365.09
2023-01-17T23:19:49.734Z,96361.28
2023-01-17T23:22:27.944Z,96363.97
2023-01-17T23:24:57.238Z,96347.72
2023-01-17T23:27:52.298Z,96351.78
2023-01-17T23:30:22.026Z,96343.53
2023-01-17T23:32:51.606Z,96343.66
2023-01-17T23:35:20.673Z,96342.84
2023-01-17T23:38:06.613Z,96359.66
2023-01-17T23:40:34.820Z,96344.91
2023-01-17T23:43:20.602Z,96338.00
2023-01-17T23:45:47.288Z,96337.72
2023-01-17T23:48:14.015Z,96335.16
2023-01-17T23:50:45.623Z,96336.91
2023-01-17T23:53:22.086Z,96337.72
2023-01-17T23:55:51.752Z,96331.91
2023-01-17T23:58:19.588Z,96338.00
